sensor_id;sensor_type;location;lat;lon;timestamp;temperature;humidity
2407;DHT22;37709;53.480;9.688;2022-08-18T00:04:29;17.20;99.90
2407;DHT22;37709;53.480;9.688;2022-08-18T00:07:06;17.10;99.90
2407;DHT22;37709;53.480;9.688;2022-08-18T00:09:35;17.10;99.90
2407;DHT22;37709;53.480;9.688;2022-08-18T00:12:06;17.10;99.90
2407;DHT22;37709;53.480;9.688;2022-08-18T00:14:34;17.20;99.90
2407;DHT22;37709;53.480;9.688;2022-08-18T00:17:01;17.10;99.90
2407;DHT22;37709;53.480;9.688;2022-08-18T00:19:29;17.00;99.90
2407;DHT22;37709;53.480;9.688;2022-08-18T00:22:17;17.00;99.90
2407;DHT22;37709;53.480;9.688;2022-08-18T00:24:52;17.00;99.90
2407;DHT22;37709;53.480;9.688;2022-08-18T00:27:23;16.90;99.90
2407;DHT22;37709;53.480;9.688;2022-08-18T00:29:57;16.90;99.90
2407;DHT22;37709;53.480;9.688;2022-08-18T00:32:29;17.00;99.90
2407;DHT22;37709;53.480;9.688;2022-08-18T00:34:56;17.00;99.90
2407;DHT22;37709;53.480;9.688;2022-08-18T00:37:24;17.10;99.90
2407;DHT22;37709;53.480;9.688;2022-08-18T00:39:52;17.20;99.90
2407;DHT22;37709;53.480;9.688;2022-08-18T00:42:26;17.20;99.90
2407;DHT22;37709;53.480;9.688;2022-08-18T00:45:03;17.20;99.90
2407;DHT22;37709;53.480;9.688;2022-08-18T00:47:31;17.20;99.90
2407;DHT22;37709;53.480;9.688;2022-08-18T00:50:17;17.20;99.90
2407;DHT22;37709;53.480;9.688;2022-08-18T00:52:53;17.20;99.90
2407;DHT22;37709;53.480;9.688;2022-08-18T00:55:22;17.10;99.90
2407;DHT22;37709;53.480;9.688;2022-08-18T00:57:54;17.00;99.90
2407;DHT22;37709;53.480;9.688;2022-08-18T01:00:27;17.00;99.90
2407;DHT22;37709;53.480;9.688;2022-08-18T01:02:58;17.00;99.90
2407;DHT22;37709;53.480;9.688;2022-08-18T01:05:32;16.90;99.90
2407;DHT22;37709;53.480;9.688;2022-08-18T01:08:01;16.90;99.90
2407;DHT22;37709;53.480;9.688;2022-08-18T01:10:32;16.80;99.90
2407;DHT22;37709;53.480;9.688;2022-08-18T01:12:59;16.80;99.90
2407;DHT22;37709;53.480;9.688;2022-08-18T01:15:27;16.70;99.90
2407;DHT22;37709;53.480;9.688;2022-08-18T01:18:00;16.60;99.90
2407;DHT22;37709;53.480;9.688;2022-08-18T01:21:04;16.60;99.90
2407;DHT22;37709;53.480;9.688;2022-08-18T01:24:04;16.50;99.90
2407;DHT22;37709;53.480;9.688;2022-08-18T01:26:35;16.50;99.90
2407;DHT22;37709;53.480;9.688;2022-08-18T01:29:11;16.50;99.90
2407;DHT22;37709;53.480;9.688;2022-08-18T01:31:52;16.50;99.90
2407;DHT22;37709;53.480;9.688;2022-08-18T01:34:25;16.50;99.90
2407;DHT22;37709;53.480;9.688;2022-08-18T01:36:53;16.50;99.90
2407;DHT22;37709;53.480;9.688;2022-08-18T01:39:22;16.40;99.90
2407;DHT22;37709;53.480;9.688;2022-08-18T01:42:10;16.40;99.90
2407;DHT22;37709;53.480;9.688;2022-08-18T01:44:40;16.40;99.90
2407;DHT22;37709;53.480;9.688;2022-08-18T01:47:10;16.40;99.90
2407;DHT22;37709;53.480;9.688;2022-08-18T01:49:39;16.50;99.90
2407;DHT22;37709;53.480;9.688;2022-08-18T01:52:15;16.50;99.90
2407;DHT22;37709;53.480;9.688;2022-08-18T01:54:47;16.50;99.90
2407;DHT22;37709;53.480;9.688;2022-08-18T01:57:17;16.70;99.90
2407;DHT22;37709;53.480;9.688;2022-08-18T01:59:45;16.70;99.90
2407;DHT22;37709;53.480;9.688;2022-08-18T02:02:17;16.80;99.90
2407;DHT22;37709;53.480;9.688;2022-08-18T02:04:46;16.80;99.90
2407;DHT22;37709;53.480;9.688;2022-08-18T02:07:14;16.70;99.90
2407;DHT22;37709;53.480;9.688;2022-08-18T02:09:42;16.60;99.90
2407;DHT22;37709;53.480;9.688;2022-08-18T02:12:10;16.70;99.90
2407;DHT22;37709;53.480;9.688;2022-08-18T02:14:38;16.80;99.90
2407;DHT22;37709;53.480;9.688;2022-08-18T02:17:08;16.70;99.90
2407;DHT22;37709;53.480;9.688;2022-08-18T02:19:38;16.80;99.90
2407;DHT22;37709;53.480;9.688;2022-08-18T02:22:08;16.80;99.90
2407;DHT22;37709;53.480;9.688;2022-08-18T02:24:36;16.70;99.90
2407;DHT22;37709;53.480;9.688;2022-08-18T02:27:05;16.70;99.90
2407;DHT22;37709;53.480;9.688;2022-08-18T02:29:34;16.60;99.90
2407;DHT22;37709;53.480;9.688;2022-08-18T02:32:01;16.70;99.90
2407;DHT22;37709;53.480;9.688;2022-08-18T02:34:29;16.60;99.90
2407;DHT22;37709;53.480;9.688;2022-08-18T02:36:58;16.60;99.90
2407;DHT22;37709;53.480;9.688;2022-08-18T02:39:27;16.70;99.90
2407;DHT22;37709;53.480;9.688;2022-08-18T02:41:54;16.60;99.90
2407;DHT22;37709;53.480;9.688;2022-08-18T02:44:23;16.60;99.90
2407;DHT22;37709;53.480;9.688;2022-08-18T02:46:53;16.60;99.90
2407;DHT22;37709;53.480;9.688;2022-08-18T02:49:23;16.60;99.90
2407;DHT22;37709;53.480;9.688;2022-08-18T02:51:52;16.60;99.90
2407;DHT22;37709;53.480;9.688;2022-08-18T02:54:21;16.50;99.90
2407;DHT22;37709;53.480;9.688;2022-08-18T02:56:51;16.50;99.90
2407;DHT22;37709;53.480;9.688;2022-08-18T02:59:21;16.50;99.90
2407;DHT22;37709;53.480;9.688;2022-08-18T03:01:53;16.50;99.90
2407;DHT22;37709;53.480;9.688;2022-08-18T03:04:24;16.50;99.90
2407;DHT22;37709;53.480;9.688;2022-08-18T03:07:00;16.40;99.90
2407;DHT22;37709;53.480;9.688;2022-08-18T03:09:32;16.30;99.90
2407;DHT22;37709;53.480;9.688;2022-08-18T03:12:00;16.30;99.90
2407;DHT22;37709;53.480;9.688;2022-08-18T03:14:28;16.20;99.90
2407;DHT22;37709;53.480;9.688;2022-08-18T03:16:56;16.20;99.90
2407;DHT22;37709;53.480;9.688;2022-08-18T03:19:25;16.20;99.90
2407;DHT22;37709;53.480;9.688;2022-08-18T03:21:57;16.20;99.90
2407;DHT22;37709;53.480;9.688;2022-08-18T03:24:30;16.20;99.90
2407;DHT22;37709;53.480;9.688;2022-08-18T03:26:59;16.20;99.90
2407;DHT22;37709;53.480;9.688;2022-08-18T03:29:28;16.20;99.90
2407;DHT22;37709;53.480;9.688;2022-08-18T03:32:04;16.20;99.90
2407;DHT22;37709;53.480;9.688;2022-08-18T03:34:32;16.10;99.90
2407;DHT22;37709;53.480;9.688;2022-08-18T03:37:00;16.10;99.90
2407;DHT22;37709;53.480;9.688;2022-08-18T03:39:27;16.10;99.90
2407;DHT22;37709;53.480;9.688;2022-08-18T03:41:56;16.10;99.90
2407;DHT22;37709;53.480;9.688;2022-08-18T03:44:30;16.00;99.90
2407;DHT22;37709;53.480;9.688;2022-08-18T03:46:59;16.00;99.90
2407;DHT22;37709;53.480;9.688;2022-08-18T03:49:30;15.90;99.90
2407;DHT22;37709;53.480;9.688;2022-08-18T03:52:00;15.90;99.90
2407;DHT22;37709;53.480;9.688;2022-08-18T03:54:29;15.80;99.90
2407;DHT22;37709;53.480;9.688;2022-08-18T03:56:59;15.80;99.90
2407;DHT22;37709;53.480;9.688;2022-08-18T03:59:27;15.90;99.90
2407;DHT22;37709;53.480;9.688;2022-08-18T04:01:58;16.10;99.90
2407;DHT22;37709;53.480;9.688;2022-08-18T04:04:28;16.20;99.90
2407;DHT22;37709;53.480;9.688;2022-08-18T04:06:58;16.20;99.90
2407;DHT22;37709;53.480;9.688;2022-08-18T04:09:29;16.20;99.90
2407;DHT22;37709;53.480;9.688;2022-08-18T04:11:57;16.30;99.90
2407;DHT22;37709;53.480;9.688;2022-08-18T04:14:28;16.40;99.90
2407;DHT22;37709;53.480;9.688;2022-08-18T04:16:58;16.40;99.90
2407;DHT22;37709;53.480;9.688;2022-08-18T04:19:25;16.50;99.90
2407;DHT22;37709;53.480;9.688;2022-08-18T04:21:56;16.50;99.90
2407;DHT22;37709;53.480;9.688;2022-08-18T04:24:26;16.60;99.90
2407;DHT22;37709;53.480;9.688;2022-08-18T04:26:59;16.50;99.90
2407;DHT22;37709;53.480;9.688;2022-08-18T04:29:27;16.50;99.90
2407;DHT22;37709;53.480;9.688;2022-08-18T04:31:55;16.50;99.90
2407;DHT22;37709;53.480;9.688;2022-08-18T04:34:23;16.50;99.90
2407;DHT22;37709;53.480;9.688;2022-08-18T04:36:51;16.40;99.90
2407;DHT22;37709;53.480;9.688;2022-08-18T04:39:21;16.50;99.90
2407;DHT22;37709;53.480;9.688;2022-08-18T04:41:50;16.50;99.90
2407;DHT22;37709;53.480;9.688;2022-08-18T04:44:19;16.50;99.90
2407;DHT22;37709;53.480;9.688;2022-08-18T04:46:51;16.50;99.90
2407;DHT22;37709;53.480;9.688;2022-08-18T04:49:24;16.60;99.90
2407;DHT22;37709;53.480;9.688;2022-08-18T04:51:53;16.70;99.90
2407;DHT22;37709;53.480;9.688;2022-08-18T04:55:00;16.80;99.90
2407;DHT22;37709;53.480;9.688;2022-08-18T04:57:30;16.80;99.90
2407;DHT22;37709;53.480;9.688;2022-08-18T05:00:05;16.80;99.90
2407;DHT22;37709;53.480;9.688;2022-08-18T05:02:33;16.90;99.90
2407;DHT22;37709;53.480;9.688;2022-08-18T05:05:02;17.00;99.90
2407;DHT22;37709;53.480;9.688;2022-08-18T05:07:30;17.00;99.90
2407;DHT22;37709;53.480;9.688;2022-08-18T05:09:58;17.10;99.90
2407;DHT22;37709;53.480;9.688;2022-08-18T05:12:27;17.20;99.90
2407;DHT22;37709;53.480;9.688;2022-08-18T05:14:55;17.20;99.90
2407;DHT22;37709;53.480;9.688;2022-08-18T05:17:24;17.30;99.90
2407;DHT22;37709;53.480;9.688;2022-08-18T05:19:59;17.40;99.90
2407;DHT22;37709;53.480;9.688;2022-08-18T05:22:29;17.50;99.90
2407;DHT22;37709;53.480;9.688;2022-08-18T05:25:04;17.50;99.90
2407;DHT22;37709;53.480;9.688;2022-08-18T05:27:33;17.60;99.90
2407;DHT22;37709;53.480;9.688;2022-08-18T05:30:03;17.70;99.90
2407;DHT22;37709;53.480;9.688;2022-08-18T05:32:40;17.70;99.90
2407;DHT22;37709;53.480;9.688;2022-08-18T05:35:24;17.70;99.90
2407;DHT22;37709;53.480;9.688;2022-08-18T05:41:05;17.80;99.90
2407;DHT22;37709;53.480;9.688;2022-08-18T05:43:35;17.90;99.90
2407;DHT22;37709;53.480;9.688;2022-08-18T05:46:19;18.00;99.90
2407;DHT22;37709;53.480;9.688;2022-08-18T05:49:13;18.00;99.90
2407;DHT22;37709;53.480;9.688;2022-08-18T05:51:45;18.10;99.90
2407;DHT22;37709;53.480;9.688;2022-08-18T05:54:14;18.20;99.90
2407;DHT22;37709;53.480;9.688;2022-08-18T05:57:06;18.20;99.90
2407;DHT22;37709;53.480;9.688;2022-08-18T05:59:38;18.20;99.90
2407;DHT22;37709;53.480;9.688;2022-08-18T06:02:17;18.40;99.90
2407;DHT22;37709;53.480;9.688;2022-08-18T06:04:55;18.50;99.90
2407;DHT22;37709;53.480;9.688;2022-08-18T06:07:56;18.60;99.90
2407;DHT22;37709;53.480;9.688;2022-08-18T06:10:25;18.50;99.90
2407;DHT22;37709;53.480;9.688;2022-08-18T06:12:57;18.50;99.90
2407;DHT22;37709;53.480;9.688;2022-08-18T06:24:10;18.30;99.90
2407;DHT22;37709;53.480;9.688;2022-08-18T06:29:49;18.30;99.90
2407;DHT22;37709;53.480;9.688;2022-08-18T06:33:11;18.40;99.90
2407;DHT22;37709;53.480;9.688;2022-08-18T06:35:49;18.50;99.90
2407;DHT22;37709;53.480;9.688;2022-08-18T06:38:39;18.50;99.90
2407;DHT22;37709;53.480;9.688;2022-08-18T06:49:37;18.60;99.90
2407;DHT22;37709;53.480;9.688;2022-08-18T06:54:58;18.60;99.90
2407;DHT22;37709;53.480;9.688;2022-08-18T06:57:35;18.60;99.90
2407;DHT22;37709;53.480;9.688;2022-08-18T07:00:10;18.60;99.90
2407;DHT22;37709;53.480;9.688;2022-08-18T07:03:14;18.50;99.90
2407;DHT22;37709;53.480;9.688;2022-08-18T07:08:50;18.60;99.90
2407;DHT22;37709;53.480;9.688;2022-08-18T07:11:28;18.80;99.90
2407;DHT22;37709;53.480;9.688;2022-08-18T07:14:20;18.80;99.90
2407;DHT22;37709;53.480;9.688;2022-08-18T07:16:48;18.80;99.90
2407;DHT22;37709;53.480;9.688;2022-08-18T07:19:30;18.80;99.90
2407;DHT22;37709;53.480;9.688;2022-08-18T07:22:09;18.80;99.90
2407;DHT22;37709;53.480;9.688;2022-08-18T07:24:46;18.80;99.90
2407;DHT22;37709;53.480;9.688;2022-08-18T07:30:10;19.00;99.90
2407;DHT22;37709;53.480;9.688;2022-08-18T07:33:01;19.20;99.90
2407;DHT22;37709;53.480;9.688;2022-08-18T07:35:36;19.20;99.90
2407;DHT22;37709;53.480;9.688;2022-08-18T07:38:24;19.20;99.90
2407;DHT22;37709;53.480;9.688;2022-08-18T07:41:18;19.30;99.90
2407;DHT22;37709;53.480;9.688;2022-08-18T07:49:05;19.40;99.90
2407;DHT22;37709;53.480;9.688;2022-08-18T07:51:51;19.50;99.90
2407;DHT22;37709;53.480;9.688;2022-08-18T07:54:33;19.70;99.90
2407;DHT22;37709;53.480;9.688;2022-08-18T08:00:50;19.80;99.90
2407;DHT22;37709;53.480;9.688;2022-08-18T08:03:58;20.10;99.90
2407;DHT22;37709;53.480;9.688;2022-08-18T08:06:44;20.30;99.90
2407;DHT22;37709;53.480;9.688;2022-08-18T08:12:52;21.40;99.90
2407;DHT22;37709;53.480;9.688;2022-08-18T08:16:08;21.80;99.90
2407;DHT22;37709;53.480;9.688;2022-08-18T08:19:04;22.10;99.90
2407;DHT22;37709;53.480;9.688;2022-08-18T08:21:59;22.10;99.90
2407;DHT22;37709;53.480;9.688;2022-08-18T08:27:29;22.50;99.90
2407;DHT22;37709;53.480;9.688;2022-08-18T08:30:06;22.20;99.90
2407;DHT22;37709;53.480;9.688;2022-08-18T08:33:21;22.10;99.90
2407;DHT22;37709;53.480;9.688;2022-08-18T08:35:46;22.20;99.90
2407;DHT22;37709;53.480;9.688;2022-08-18T08:38:38;21.90;99.90
2407;DHT22;37709;53.480;9.688;2022-08-18T08:41:23;22.10;99.90
2407;DHT22;37709;53.480;9.688;2022-08-18T08:44:22;22.10;99.90
2407;DHT22;37709;53.480;9.688;2022-08-18T08:47:02;22.20;99.90
2407;DHT22;37709;53.480;9.688;2022-08-18T08:49:43;23.00;99.90
2407;DHT22;37709;53.480;9.688;2022-08-18T08:52:35;23.50;99.90
2407;DHT22;37709;53.480;9.688;2022-08-18T08:55:10;23.90;99.90
2407;DHT22;37709;53.480;9.688;2022-08-18T09:00:24;23.80;99.90
2407;DHT22;37709;53.480;9.688;2022-08-18T09:06:01;24.00;99.90
2407;DHT22;37709;53.480;9.688;2022-08-18T09:09:00;23.90;99.90
2407;DHT22;37709;53.480;9.688;2022-08-18T09:11:50;23.20;99.90
2407;DHT22;37709;53.480;9.688;2022-08-18T09:24:54;23.90;99.90
2407;DHT22;37709;53.480;9.688;2022-08-18T09:27:32;23.60;99.90
2407;DHT22;37709;53.480;9.688;2022-08-18T09:33:15;28.10;99.90
2407;DHT22;37709;53.480;9.688;2022-08-18T09:38:29;29.50;99.90
2407;DHT22;37709;53.480;9.688;2022-08-18T09:41:21;28.10;99.90
2407;DHT22;37709;53.480;9.688;2022-08-18T09:44:14;27.00;99.90
2407;DHT22;37709;53.480;9.688;2022-08-18T09:46:55;27.30;99.90
2407;DHT22;37709;53.480;9.688;2022-08-18T09:51:55;29.40;99.90
2407;DHT22;37709;53.480;9.688;2022-08-18T09:54:29;30.60;99.90
2407;DHT22;37709;53.480;9.688;2022-08-18T09:57:24;31.70;99.90
2407;DHT22;37709;53.480;9.688;2022-08-18T09:59:56;30.00;99.90
2407;DHT22;37709;53.480;9.688;2022-08-18T10:07:53;28.70;99.90
2407;DHT22;37709;53.480;9.688;2022-08-18T10:10:47;29.60;99.90
2407;DHT22;37709;53.480;9.688;2022-08-18T10:17:08;32.90;99.90
2407;DHT22;37709;53.480;9.688;2022-08-18T10:20:03;34.30;99.90
2407;DHT22;37709;53.480;9.688;2022-08-18T10:22:53;32.40;99.90
2407;DHT22;37709;53.480;9.688;2022-08-18T10:25:37;31.10;99.90
2407;DHT22;37709;53.480;9.688;2022-08-18T10:28:10;33.70;99.90
2407;DHT22;37709;53.480;9.688;2022-08-18T10:31:03;33.70;99.90
2407;DHT22;37709;53.480;9.688;2022-08-18T10:34:06;31.90;99.90
2407;DHT22;37709;53.480;9.688;2022-08-18T10:36:58;33.10;99.90
2407;DHT22;37709;53.480;9.688;2022-08-18T10:39:43;33.80;99.90
2407;DHT22;37709;53.480;9.688;2022-08-18T10:42:44;34.80;99.90
2407;DHT22;37709;53.480;9.688;2022-08-18T10:45:48;33.30;99.90
2407;DHT22;37709;53.480;9.688;2022-08-18T10:49:00;31.60;99.90
2407;DHT22;37709;53.480;9.688;2022-08-18T10:52:15;30.50;99.90
2407;DHT22;37709;53.480;9.688;2022-08-18T11:00:34;30.40;99.90
2407;DHT22;37709;53.480;9.688;2022-08-18T11:06:22;30.80;99.90
2407;DHT22;37709;53.480;9.688;2022-08-18T11:08:58;32.20;99.90
2407;DHT22;37709;53.480;9.688;2022-08-18T11:11:34;33.50;98.60
2407;DHT22;37709;53.480;9.688;2022-08-18T11:19:55;31.20;99.90
2407;DHT22;37709;53.480;9.688;2022-08-18T11:22:25;30.60;99.90
2407;DHT22;37709;53.480;9.688;2022-08-18T11:25:01;31.90;99.90
2407;DHT22;37709;53.480;9.688;2022-08-18T11:27:35;32.90;97.30
2407;DHT22;37709;53.480;9.688;2022-08-18T11:30:13;32.20;99.10
2407;DHT22;37709;53.480;9.688;2022-08-18T11:32:43;31.70;99.00
2407;DHT22;37709;53.480;9.688;2022-08-18T11:35:22;32.50;97.80
2407;DHT22;37709;53.480;9.688;2022-08-18T11:37:57;34.00;96.60
2407;DHT22;37709;53.480;9.688;2022-08-18T11:43:32;37.20;88.00
2407;DHT22;37709;53.480;9.688;2022-08-18T11:48:46;34.20;93.10
2407;DHT22;37709;53.480;9.688;2022-08-18T11:51:28;35.00;91.90
2407;DHT22;37709;53.480;9.688;2022-08-18T11:54:03;38.00;89.80
2407;DHT22;37709;53.480;9.688;2022-08-18T11:56:45;40.20;82.50
2407;DHT22;37709;53.480;9.688;2022-08-18T12:02:18;38.70;75.30
2407;DHT22;37709;53.480;9.688;2022-08-18T12:04:50;36.40;80.40
2407;DHT22;37709;53.480;9.688;2022-08-18T12:07:33;35.20;82.80
2407;DHT22;37709;53.480;9.688;2022-08-18T12:10:24;36.60;81.40
2407;DHT22;37709;53.480;9.688;2022-08-18T12:12:56;39.00;70.90
2407;DHT22;37709;53.480;9.688;2022-08-18T12:15:32;40.70;70.70
2407;DHT22;37709;53.480;9.688;2022-08-18T12:18:20;41.70;65.80
2407;DHT22;37709;53.480;9.688;2022-08-18T12:20:56;41.90;62.70
2407;DHT22;37709;53.480;9.688;2022-08-18T12:23:25;41.10;63.50
2407;DHT22;37709;53.480;9.688;2022-08-18T12:25:54;40.90;65.10
2407;DHT22;37709;53.480;9.688;2022-08-18T12:28:21;42.00;61.80
2407;DHT22;37709;53.480;9.688;2022-08-18T12:30:54;42.70;59.50
2407;DHT22;37709;53.480;9.688;2022-08-18T12:33:42;43.50;57.80
2407;DHT22;37709;53.480;9.688;2022-08-18T12:36:26;44.30;55.80
2407;DHT22;37709;53.480;9.688;2022-08-18T12:38:57;44.80;52.20
2407;DHT22;37709;53.480;9.688;2022-08-18T12:41:25;42.40;53.20
2407;DHT22;37709;53.480;9.688;2022-08-18T12:43:55;41.40;54.20
2407;DHT22;37709;53.480;9.688;2022-08-18T12:46:26;39.40;56.80
2407;DHT22;37709;53.480;9.688;2022-08-18T12:48:54;38.00;59.50
2407;DHT22;37709;53.480;9.688;2022-08-18T12:51:25;36.90;60.70
2407;DHT22;37709;53.480;9.688;2022-08-18T12:53:57;37.40;62.70
2407;DHT22;37709;53.480;9.688;2022-08-18T12:56:28;40.40;58.80
2407;DHT22;37709;53.480;9.688;2022-08-18T12:59:01;41.70;56.00
2407;DHT22;37709;53.480;9.688;2022-08-18T13:01:32;41.20;56.20
2407;DHT22;37709;53.480;9.688;2022-08-18T13:04:03;40.80;56.30
2407;DHT22;37709;53.480;9.688;2022-08-18T13:06:48;41.30;56.60
2407;DHT22;37709;53.480;9.688;2022-08-18T13:09:33;42.50;53.70
2407;DHT22;37709;53.480;9.688;2022-08-18T13:12:21;43.10;53.60
2407;DHT22;37709;53.480;9.688;2022-08-18T13:14:50;41.10;54.50
2407;DHT22;37709;53.480;9.688;2022-08-18T13:17:21;39.20;57.20
2407;DHT22;37709;53.480;9.688;2022-08-18T13:20:12;40.40;55.80
2407;DHT22;37709;53.480;9.688;2022-08-18T13:22:40;39.00;56.80
2407;DHT22;37709;53.480;9.688;2022-08-18T13:25:13;38.10;59.00
2407;DHT22;37709;53.480;9.688;2022-08-18T13:28:02;40.00;56.90
2407;DHT22;37709;53.480;9.688;2022-08-18T13:30:29;41.10;54.60
2407;DHT22;37709;53.480;9.688;2022-08-18T13:33:00;41.30;53.20
2407;DHT22;37709;53.480;9.688;2022-08-18T13:35:49;41.20;53.40
2407;DHT22;37709;53.480;9.688;2022-08-18T13:38:46;41.60;53.00
2407;DHT22;37709;53.480;9.688;2022-08-18T13:41:14;41.80;52.80
2407;DHT22;37709;53.480;9.688;2022-08-18T13:43:43;41.30;52.70
2407;DHT22;37709;53.480;9.688;2022-08-18T13:46:17;41.30;53.80
2407;DHT22;37709;53.480;9.688;2022-08-18T13:48:56;41.00;53.00
2407;DHT22;37709;53.480;9.688;2022-08-18T13:51:29;41.50;52.90
2407;DHT22;37709;53.480;9.688;2022-08-18T13:53:58;41.70;51.60
2407;DHT22;37709;53.480;9.688;2022-08-18T13:56:46;39.80;53.30
2407;DHT22;37709;53.480;9.688;2022-08-18T13:59:19;38.30;56.20
2407;DHT22;37709;53.480;9.688;2022-08-18T14:01:49;38.60;56.50
2407;DHT22;37709;53.480;9.688;2022-08-18T14:04:20;38.30;57.20
2407;DHT22;37709;53.480;9.688;2022-08-18T14:06:50;39.40;55.30
2407;DHT22;37709;53.480;9.688;2022-08-18T14:09:26;39.70;55.40
2407;DHT22;37709;53.480;9.688;2022-08-18T14:12:16;39.70;55.50
2407;DHT22;37709;53.480;9.688;2022-08-18T14:14:53;38.50;56.00
2407;DHT22;37709;53.480;9.688;2022-08-18T14:17:23;38.00;57.30
2407;DHT22;37709;53.480;9.688;2022-08-18T14:19:51;37.60;58.20
2407;DHT22;37709;53.480;9.688;2022-08-18T14:22:42;38.80;57.00
2407;DHT22;37709;53.480;9.688;2022-08-18T14:25:30;38.80;55.30
2407;DHT22;37709;53.480;9.688;2022-08-18T14:28:16;37.20;57.70
2407;DHT22;37709;53.480;9.688;2022-08-18T14:30:52;36.30;59.30
2407;DHT22;37709;53.480;9.688;2022-08-18T14:33:23;34.70;62.10
2407;DHT22;37709;53.480;9.688;2022-08-18T14:36:12;33.40;65.60
2407;DHT22;37709;53.480;9.688;2022-08-18T14:38:40;32.60;66.40
2407;DHT22;37709;53.480;9.688;2022-08-18T14:41:11;32.00;69.30
2407;DHT22;37709;53.480;9.688;2022-08-18T14:43:39;31.70;71.00
2407;DHT22;37709;53.480;9.688;2022-08-18T14:46:27;33.20;68.40
2407;DHT22;37709;53.480;9.688;2022-08-18T14:48:56;34.40;64.50
2407;DHT22;37709;53.480;9.688;2022-08-18T14:51:25;34.80;63.90
2407;DHT22;37709;53.480;9.688;2022-08-18T14:53:53;34.90;63.30
2407;DHT22;37709;53.480;9.688;2022-08-18T14:56:23;34.70;64.20
2407;DHT22;37709;53.480;9.688;2022-08-18T14:58:55;34.00;66.20
2407;DHT22;37709;53.480;9.688;2022-08-18T15:01:23;33.40;66.80
2407;DHT22;37709;53.480;9.688;2022-08-18T15:03:53;32.80;69.70
2407;DHT22;37709;53.480;9.688;2022-08-18T15:06:21;31.90;70.40
2407;DHT22;37709;53.480;9.688;2022-08-18T15:08:54;31.10;73.00
2407;DHT22;37709;53.480;9.688;2022-08-18T15:11:24;30.30;74.40
2407;DHT22;37709;53.480;9.688;2022-08-18T15:13:52;30.20;75.40
2407;DHT22;37709;53.480;9.688;2022-08-18T15:16:21;30.30;75.30
2407;DHT22;37709;53.480;9.688;2022-08-18T15:18:58;30.80;75.20
2407;DHT22;37709;53.480;9.688;2022-08-18T15:21:28;31.20;74.00
2407;DHT22;37709;53.480;9.688;2022-08-18T15:24:15;31.00;73.80
2407;DHT22;37709;53.480;9.688;2022-08-18T15:27:06;30.80;75.30
2407;DHT22;37709;53.480;9.688;2022-08-18T15:29:39;30.50;74.20
2407;DHT22;37709;53.480;9.688;2022-08-18T15:32:11;29.90;76.20
2407;DHT22;37709;53.480;9.688;2022-08-18T15:34:44;29.80;76.90
2407;DHT22;37709;53.480;9.688;2022-08-18T15:37:14;29.40;77.40
2407;DHT22;37709;53.480;9.688;2022-08-18T15:39:47;29.50;78.10
2407;DHT22;37709;53.480;9.688;2022-08-18T15:42:22;29.60;77.20
2407;DHT22;37709;53.480;9.688;2022-08-18T15:44:49;29.30;78.20
2407;DHT22;37709;53.480;9.688;2022-08-18T15:47:21;29.20;78.20
2407;DHT22;37709;53.480;9.688;2022-08-18T15:49:51;29.20;79.10
2407;DHT22;37709;53.480;9.688;2022-08-18T15:52:22;29.20;79.40
2407;DHT22;37709;53.480;9.688;2022-08-18T15:54:53;29.30;80.40
2407;DHT22;37709;53.480;9.688;2022-08-18T15:57:29;29.80;79.30
2407;DHT22;37709;53.480;9.688;2022-08-18T16:00:08;30.20;78.60
2407;DHT22;37709;53.480;9.688;2022-08-18T16:02:39;30.70;78.20
2407;DHT22;37709;53.480;9.688;2022-08-18T16:05:17;30.90;76.40
2407;DHT22;37709;53.480;9.688;2022-08-18T16:07:47;30.60;77.20
2407;DHT22;37709;53.480;9.688;2022-08-18T16:10:17;30.50;75.80
2407;DHT22;37709;53.480;9.688;2022-08-18T16:12:46;30.20;76.20
2407;DHT22;37709;53.480;9.688;2022-08-18T16:15:16;29.90;77.70
2407;DHT22;37709;53.480;9.688;2022-08-18T16:17:49;29.60;77.70
2407;DHT22;37709;53.480;9.688;2022-08-18T16:20:18;29.00;78.80
2407;DHT22;37709;53.480;9.688;2022-08-18T16:22:46;28.70;79.30
2407;DHT22;37709;53.480;9.688;2022-08-18T16:25:14;28.30;79.90
2407;DHT22;37709;53.480;9.688;2022-08-18T16:27:45;28.20;81.10
2407;DHT22;37709;53.480;9.688;2022-08-18T16:30:23;28.10;81.40
2407;DHT22;37709;53.480;9.688;2022-08-18T16:32:51;28.10;81.90
2407;DHT22;37709;53.480;9.688;2022-08-18T16:35:21;27.80;83.30
2407;DHT22;37709;53.480;9.688;2022-08-18T16:37:49;27.80;84.00
2407;DHT22;37709;53.480;9.688;2022-08-18T16:40:18;28.00;83.60
2407;DHT22;37709;53.480;9.688;2022-08-18T16:42:46;28.10;84.40
2407;DHT22;37709;53.480;9.688;2022-08-18T16:45:20;28.20;84.90
2407;DHT22;37709;53.480;9.688;2022-08-18T16:47:48;28.30;83.80
2407;DHT22;37709;53.480;9.688;2022-08-18T16:50:16;28.00;83.40
2407;DHT22;37709;53.480;9.688;2022-08-18T16:52:44;27.50;84.30
2407;DHT22;37709;53.480;9.688;2022-08-18T16:55:12;27.00;86.30
2407;DHT22;37709;53.480;9.688;2022-08-18T16:57:42;26.70;87.10
2407;DHT22;37709;53.480;9.688;2022-08-18T17:00:29;26.30;88.60
2407;DHT22;37709;53.480;9.688;2022-08-18T17:03:22;26.20;89.80
2407;DHT22;37709;53.480;9.688;2022-08-18T17:06:12;25.90;90.60
2407;DHT22;37709;53.480;9.688;2022-08-18T17:08:41;25.80;91.50
2407;DHT22;37709;53.480;9.688;2022-08-18T17:11:12;25.70;91.90
2407;DHT22;37709;53.480;9.688;2022-08-18T17:13:47;25.60;92.70
2407;DHT22;37709;53.480;9.688;2022-08-18T17:16:21;25.60;92.80
2407;DHT22;37709;53.480;9.688;2022-08-18T17:18:50;25.70;93.00
2407;DHT22;37709;53.480;9.688;2022-08-18T17:21:23;25.60;93.50
2407;DHT22;37709;53.480;9.688;2022-08-18T17:23:51;25.70;93.50
2407;DHT22;37709;53.480;9.688;2022-08-18T17:31:59;24.60;96.40
2407;DHT22;37709;53.480;9.688;2022-08-18T17:34:35;24.50;97.50
2407;DHT22;37709;53.480;9.688;2022-08-18T17:37:11;24.20;98.60
2407;DHT22;37709;53.480;9.688;2022-08-18T17:42:40;24.00;99.90
2407;DHT22;37709;53.480;9.688;2022-08-18T17:45:09;23.80;99.90
2407;DHT22;37709;53.480;9.688;2022-08-18T17:48:07;23.90;99.90
2407;DHT22;37709;53.480;9.688;2022-08-18T17:50:42;23.80;99.90
2407;DHT22;37709;53.480;9.688;2022-08-18T17:53:56;23.60;99.90
2407;DHT22;37709;53.480;9.688;2022-08-18T17:56:30;23.60;99.90
2407;DHT22;37709;53.480;9.688;2022-08-18T17:59:27;23.60;99.90
2407;DHT22;37709;53.480;9.688;2022-08-18T18:02:22;23.60;99.90
2407;DHT22;37709;53.480;9.688;2022-08-18T18:05:02;23.50;99.90
2407;DHT22;37709;53.480;9.688;2022-08-18T18:07:39;23.30;99.90
2407;DHT22;37709;53.480;9.688;2022-08-18T18:15:37;22.80;99.90
2407;DHT22;37709;53.480;9.688;2022-08-18T18:21:20;22.40;99.90
2407;DHT22;37709;53.480;9.688;2022-08-18T18:24:12;22.30;99.90
2407;DHT22;37709;53.480;9.688;2022-08-18T18:26:45;22.10;99.90
2407;DHT22;37709;53.480;9.688;2022-08-18T18:34:32;21.50;99.90
2407;DHT22;37709;53.480;9.688;2022-08-18T18:37:01;21.50;99.90
2407;DHT22;37709;53.480;9.688;2022-08-18T18:39:33;21.40;99.90
2407;DHT22;37709;53.480;9.688;2022-08-18T18:42:19;21.30;99.90
2407;DHT22;37709;53.480;9.688;2022-08-18T18:44:53;21.20;99.90
2407;DHT22;37709;53.480;9.688;2022-08-18T18:52:57;21.10;99.90
2407;DHT22;37709;53.480;9.688;2022-08-18T18:55:32;21.00;99.90